sensor_id;sensor_type;location;lat;lon;timestamp;P1;durP1;ratioP1;P2;durP2;ratioP2
28958;SDS011;16066;0.000;0.000;2024-02-26T06:00:42;17.00;;;11.30;;
28958;SDS011;16066;0.000;0.000;2024-02-26T06:03:08;17.67;;;11.00;;
28958;SDS011;16066;0.000;0.000;2024-02-26T06:05:34;17.53;;;11.20;;
28958;SDS011;16066;0.000;0.000;2024-02-26T06:08:00;17.17;;;11.13;;
28958;SDS011;16066;0.000;0.000;2024-02-26T06:10:25;18.00;;;10.80;;
28958;SDS011;16066;0.000;0.000;2024-02-26T06:12:51;16.70;;;10.63;;
28958;SDS011;16066;0.000;0.000;2024-02-26T06:15:16;17.77;;;11.30;;
28958;SDS011;16066;0.000;0.000;2024-02-26T06:17:42;15.57;;;10.83;;
28958;SDS011;16066;0.000;0.000;2024-02-26T06:20:08;16.63;;;10.87;;
28958;SDS011;16066;0.000;0.000;2024-02-26T06:22:37;16.50;;;10.53;;
28958;SDS011;16066;0.000;0.000;2024-02-26T06:25:04;17.30;;;11.30;;
28958;SDS011;16066;0.000;0.000;2024-02-26T06:27:30;17.43;;;10.40;;
28958;SDS011;16066;0.000;0.000;2024-02-26T06:29:55;14.17;;;10.50;;
28958;SDS011;16066;0.000;0.000;2024-02-26T06:32:21;17.73;;;11.77;;
28958;SDS011;16066;0.000;0.000;2024-02-26T06:34:48;16.70;;;11.27;;
28958;SDS011;16066;0.000;0.000;2024-02-26T06:37:13;16.20;;;10.00;;
28958;SDS011;16066;0.000;0.000;2024-02-26T06:39:39;16.93;;;10.70;;
28958;SDS011;16066;0.000;0.000;2024-02-26T06:42:06;17.70;;;10.83;;
28958;SDS011;16066;0.000;0.000;2024-02-26T06:44:31;16.60;;;10.57;;
28958;SDS011;16066;0.000;0.000;2024-02-26T06:46:57;14.73;;;10.10;;
28958;SDS011;16066;0.000;0.000;2024-02-26T06:49:24;14.27;;;9.27;;
28958;SDS011;16066;0.000;0.000;2024-02-26T06:51:50;16.97;;;9.60;;
28958;SDS011;16066;0.000;0.000;2024-02-26T06:54:15;19.70;;;9.40;;
28958;SDS011;16066;0.000;0.000;2024-02-26T06:56:41;13.10;;;8.80;;
28958;SDS011;16066;0.000;0.000;2024-02-26T06:59:06;12.70;;;8.27;;
28958;SDS011;16066;0.000;0.000;2024-02-26T07:01:32;12.63;;;8.73;;
28958;SDS011;16066;0.000;0.000;2024-02-26T07:03:57;11.33;;;8.00;;
28958;SDS011;16066;0.000;0.000;2024-02-26T07:06:23;16.83;;;8.20;;
28958;SDS011;16066;0.000;0.000;2024-02-26T07:08:48;15.50;;;8.93;;
28958;SDS011;16066;0.000;0.000;2024-02-26T07:11:14;12.13;;;8.23;;
28958;SDS011;16066;0.000;0.000;2024-02-26T07:13:39;13.50;;;8.73;;
28958;SDS011;16066;0.000;0.000;2024-02-26T07:16:05;13.67;;;8.57;;
28958;SDS011;16066;0.000;0.000;2024-02-26T07:18:31;12.17;;;8.40;;
28958;SDS011;16066;0.000;0.000;2024-02-26T07:20:56;13.77;;;8.73;;
28958;SDS011;16066;0.000;0.000;2024-02-26T07:23:22;10.43;;;7.47;;
28958;SDS011;16066;0.000;0.000;2024-02-26T07:25:47;23.33;;;8.50;;
28958;SDS011;16066;0.000;0.000;2024-02-26T07:28:15;13.20;;;7.83;;
28958;SDS011;16066;0.000;0.000;2024-02-26T07:30:41;11.33;;;6.90;;
28958;SDS011;16066;0.000;0.000;2024-02-26T07:33:06;17.23;;;8.30;;
28958;SDS011;16066;0.000;0.000;2024-02-26T07:35:33;15.90;;;8.23;;
28958;SDS011;16066;0.000;0.000;2024-02-26T07:37:59;13.73;;;8.60;;
28958;SDS011;16066;0.000;0.000;2024-02-26T07:40:24;18.30;;;6.60;;
28958;SDS011;16066;0.000;0.000;2024-02-26T07:42:50;10.77;;;6.70;;
28958;SDS011;16066;0.000;0.000;2024-02-26T07:45:16;11.93;;;6.77;;
28958;SDS011;16066;0.000;0.000;2024-02-26T07:47:44;8.90;;;6.40;;
28958;SDS011;16066;0.000;0.000;2024-02-26T07:50:11;8.47;;;6.10;;
28958;SDS011;16066;0.000;0.000;2024-02-26T07:52:37;12.17;;;7.23;;
28958;SDS011;16066;0.000;0.000;2024-02-26T07:55:02;10.27;;;6.43;;
28958;SDS011;16066;0.000;0.000;2024-02-26T07:57:28;15.17;;;7.63;;
28958;SDS011;16066;0.000;0.000;2024-02-26T07:59:53;11.90;;;6.27;;
28958;SDS011;16066;0.000;0.000;2024-02-26T08:02:20;12.97;;;6.50;;
28958;SDS011;16066;0.000;0.000;2024-02-26T08:04:47;18.70;;;6.90;;
28958;SDS011;16066;0.000;0.000;2024-02-26T08:07:12;9.53;;;6.77;;
28958;SDS011;16066;0.000;0.000;2024-02-26T08:09:38;11.57;;;6.63;;
28958;SDS011;16066;0.000;0.000;2024-02-26T08:12:03;10.80;;;6.43;;
28958;SDS011;16066;0.000;0.000;2024-02-26T08:14:29;17.90;;;7.03;;
28958;SDS011;16066;0.000;0.000;2024-02-26T08:16:57;14.07;;;5.33;;
28958;SDS011;16066;0.000;0.000;2024-02-26T08:19:23;9.50;;;5.60;;
28958;SDS011;16066;0.000;0.000;2024-02-26T08:21:49;9.20;;;5.13;;
28958;SDS011;16066;0.000;0.000;2024-02-26T08:24:15;9.03;;;5.93;;
28958;SDS011;16066;0.000;0.000;2024-02-26T08:26:40;11.23;;;5.90;;
28958;SDS011;16066;0.000;0.000;2024-02-26T08:29:06;10.47;;;5.90;;
28958;SDS011;16066;0.000;0.000;2024-02-26T08:31:31;9.10;;;5.30;;
28958;SDS011;16066;0.000;0.000;2024-02-26T08:33:57;7.63;;;4.87;;
28958;SDS011;16066;0.000;0.000;2024-02-26T08:36:24;13.93;;;6.00;;
28958;SDS011;16066;0.000;0.000;2024-02-26T08:38:49;7.50;;;4.90;;
28958;SDS011;16066;0.000;0.000;2024-02-26T08:41:15;8.43;;;5.80;;
28958;SDS011;16066;0.000;0.000;2024-02-26T08:43:40;12.17;;;6.37;;
28958;SDS011;16066;0.000;0.000;2024-02-26T08:46:08;11.10;;;6.20;;
28958;SDS011;16066;0.000;0.000;2024-02-26T08:48:35;10.97;;;5.73;;
28958;SDS011;16066;0.000;0.000;2024-02-26T08:51:04;9.17;;;6.67;;
28958;SDS011;16066;0.000;0.000;2024-02-26T08:53:30;7.83;;;5.60;;
28958;SDS011;16066;0.000;0.000;2024-02-26T08:55:56;10.63;;;6.60;;
28958;SDS011;16066;0.000;0.000;2024-02-26T08:58:21;7.60;;;5.70;;
28958;SDS011;16066;0.000;0.000;2024-02-26T09:00:47;8.63;;;5.40;;
28958;SDS011;16066;0.000;0.000;2024-02-26T09:03:12;13.23;;;7.30;;
28958;SDS011;16066;0.000;0.000;2024-02-26T09:05:38;18.13;;;7.47;;
28958;SDS011;16066;0.000;0.000;2024-02-26T09:08:03;12.60;;;7.50;;
28958;SDS011;16066;0.000;0.000;2024-02-26T09:10:29;12.20;;;7.07;;
28958;SDS011;16066;0.000;0.000;2024-02-26T09:12:55;34.67;;;8.30;;
28958;SDS011;16066;0.000;0.000;2024-02-26T09:15:20;13.47;;;7.80;;
28958;SDS011;16066;0.000;0.000;2024-02-26T09:17:46;21.73;;;7.30;;
28958;SDS011;16066;0.000;0.000;2024-02-26T09:20:15;12.17;;;7.00;;
28958;SDS011;16066;0.000;0.000;2024-02-26T09:22:44;12.37;;;6.57;;
28958;SDS011;16066;0.000;0.000;2024-02-26T09:25:13;10.80;;;6.40;;
28958;SDS011;16066;0.000;0.000;2024-02-26T09:27:40;11.87;;;6.70;;
28958;SDS011;16066;0.000;0.000;2024-02-26T09:30:07;12.10;;;7.00;;
28958;SDS011;16066;0.000;0.000;2024-02-26T09:32:33;10.80;;;7.57;;
28958;SDS011;16066;0.000;0.000;2024-02-26T09:34:58;15.60;;;7.83;;
28958;SDS011;16066;0.000;0.000;2024-02-26T09:37:24;13.10;;;7.37;;
28958;SDS011;16066;0.000;0.000;2024-02-26T09:39:50;9.93;;;6.80;;
28958;SDS011;16066;0.000;0.000;2024-02-26T09:42:16;13.67;;;7.43;;
28958;SDS011;16066;0.000;0.000;2024-02-26T09:44:44;12.33;;;7.90;;
28958;SDS011;16066;0.000;0.000;2024-02-26T09:47:11;11.83;;;8.60;;
28958;SDS011;16066;0.000;0.000;2024-02-26T09:49:40;23.27;;;10.13;;
28958;SDS011;16066;0.000;0.000;2024-02-26T09:52:08;17.70;;;9.37;;
28958;SDS011;16066;0.000;0.000;2024-02-26T09:54:34;12.40;;;7.60;;
28958;SDS011;16066;0.000;0.000;2024-02-26T09:57:00;13.90;;;8.10;;
28958;SDS011;16066;0.000;0.000;2024-02-26T09:59:29;12.27;;;7.37;;
28958;SDS011;16066;0.000;0.000;2024-02-26T10:01:59;11.23;;;6.83;;
28958;SDS011;16066;0.000;0.000;2024-02-26T10:04:26;15.50;;;7.77;;
28958;SDS011;16066;0.000;0.000;2024-02-26T10:06:52;21.83;;;10.93;;
28958;SDS011;16066;0.000;0.000;2024-02-26T10:09:18;16.97;;;9.20;;
28958;SDS011;16066;0.000;0.000;2024-02-26T10:11:44;14.83;;;9.80;;
28958;SDS011;16066;0.000;0.000;2024-02-26T10:14:14;17.33;;;11.40;;
28958;SDS011;16066;0.000;0.000;2024-02-26T10:16:40;15.37;;;10.47;;
28958;SDS011;16066;0.000;0.000;2024-02-26T10:19:06;19.93;;;11.77;;
28958;SDS011;16066;0.000;0.000;2024-02-26T10:21:32;14.67;;;9.37;;
28958;SDS011;16066;0.000;0.000;2024-02-26T10:23:57;15.60;;;10.03;;
28958;SDS011;16066;0.000;0.000;2024-02-26T10:26:23;16.53;;;10.87;;
28958;SDS011;16066;0.000;0.000;2024-02-26T10:28:48;10.43;;;7.33;;
28958;SDS011;16066;0.000;0.000;2024-02-26T10:31:14;14.77;;;9.80;;
28958;SDS011;16066;0.000;0.000;2024-02-26T10:33:40;15.83;;;11.47;;
28958;SDS011;16066;0.000;0.000;2024-02-26T10:36:07;13.60;;;9.30;;
28958;SDS011;16066;0.000;0.000;2024-02-26T10:38:33;14.67;;;9.07;;
28958;SDS011;16066;0.000;0.000;2024-02-26T10:41:06;12.50;;;8.90;;
28958;SDS011;16066;0.000;0.000;2024-02-26T10:43:33;12.47;;;8.30;;
28958;SDS011;16066;0.000;0.000;2024-02-26T10:45:58;8.87;;;6.73;;
28958;SDS011;16066;0.000;0.000;2024-02-26T10:48:24;11.67;;;7.10;;
28958;SDS011;16066;0.000;0.000;2024-02-26T10:50:49;13.23;;;8.80;;
28958;SDS011;16066;0.000;0.000;2024-02-26T10:53:22;9.37;;;6.57;;
28958;SDS011;16066;0.000;0.000;2024-02-26T10:55:48;16.40;;;8.43;;
28958;SDS011;16066;0.000;0.000;2024-02-26T10:58:20;13.10;;;7.03;;
28958;SDS011;16066;0.000;0.000;2024-02-26T11:00:47;14.13;;;9.20;;
28958;SDS011;16066;0.000;0.000;2024-02-26T11:03:15;12.60;;;7.80;;
28958;SDS011;16066;0.000;0.000;2024-02-26T11:05:42;15.40;;;8.27;;
28958;SDS011;16066;0.000;0.000;2024-02-26T11:08:10;12.80;;;8.03;;
28958;SDS011;16066;0.000;0.000;2024-02-26T11:10:36;11.53;;;7.80;;
28958;SDS011;16066;0.000;0.000;2024-02-26T11:13:03;10.73;;;7.50;;
28958;SDS011;16066;0.000;0.000;2024-02-26T11:15:31;12.50;;;7.90;;
28958;SDS011;16066;0.000;0.000;2024-02-26T11:17:58;13.03;;;8.53;;
28958;SDS011;16066;0.000;0.000;2024-02-26T11:20:27;13.97;;;8.40;;
28958;SDS011;16066;0.000;0.000;2024-02-26T11:22:54;18.90;;;8.87;;
28958;SDS011;16066;0.000;0.000;2024-02-26T11:25:20;15.33;;;8.43;;
28958;SDS011;16066;0.000;0.000;2024-02-26T11:27:47;9.40;;;7.00;;
28958;SDS011;16066;0.000;0.000;2024-02-26T11:30:17;10.60;;;7.20;;
28958;SDS011;16066;0.000;0.000;2024-02-26T11:32:44;13.83;;;9.07;;
28958;SDS011;16066;0.000;0.000;2024-02-26T11:35:11;14.60;;;7.50;;
28958;SDS011;16066;0.000;0.000;2024-02-26T11:37:40;11.10;;;7.17;;
28958;SDS011;16066;0.000;0.000;2024-02-26T11:40:09;12.47;;;7.73;;
28958;SDS011;16066;0.000;0.000;2024-02-26T11:42:36;10.87;;;6.83;;
28958;SDS011;16066;0.000;0.000;2024-02-26T11:45:38;13.93;;;7.17;;
28958;SDS011;16066;0.000;0.000;2024-02-26T11:48:03;9.60;;;6.40;;
28958;SDS011;16066;0.000;0.000;2024-02-26T11:50:41;11.30;;;7.37;;
28958;SDS011;16066;0.000;0.000;2024-02-26T11:55:47;10.13;;;7.03;;
28958;SDS011;16066;0.000;0.000;2024-02-26T11:58:14;34.93;;;7.03;;
28958;SDS011;16066;0.000;0.000;2024-02-26T12:00:40;15.20;;;7.10;;
28958;SDS011;16066;0.000;0.000;2024-02-26T12:03:06;14.00;;;7.93;;
28958;SDS011;16066;0.000;0.000;2024-02-26T12:05:33;13.13;;;7.60;;
28958;SDS011;16066;0.000;0.000;2024-02-26T12:08:04;10.87;;;7.60;;
28958;SDS011;16066;0.000;0.000;2024-02-26T12:10:33;12.70;;;6.70;;
28958;SDS011;16066;0.000;0.000;2024-02-26T12:13:07;24.10;;;7.67;;
28958;SDS011;16066;0.000;0.000;2024-02-26T12:15:45;11.83;;;7.20;;
28958;SDS011;16066;0.000;0.000;2024-02-26T12:18:20;12.47;;;6.80;;
28958;SDS011;16066;0.000;0.000;2024-02-26T12:20:57;14.30;;;7.70;;
28958;SDS011;16066;0.000;0.000;2024-02-26T12:23:24;15.33;;;6.50;;
28958;SDS011;16066;0.000;0.000;2024-02-26T12:25:54;15.03;;;6.07;;
28958;SDS011;16066;0.000;0.000;2024-02-26T12:28:28;15.03;;;6.13;;
28958;SDS011;16066;0.000;0.000;2024-02-26T12:30:54;16.30;;;6.73;;
28958;SDS011;16066;0.000;0.000;2024-02-26T12:33:19;22.83;;;7.97;;
28958;SDS011;16066;0.000;0.000;2024-02-26T12:35:45;11.70;;;7.53;;
28958;SDS011;16066;0.000;0.000;2024-02-26T12:38:14;8.30;;;6.43;;
28958;SDS011;16066;0.000;0.000;2024-02-26T12:40:39;16.77;;;8.20;;
28958;SDS011;16066;0.000;0.000;2024-02-26T12:43:05;13.77;;;7.77;;
28958;SDS011;16066;0.000;0.000;2024-02-26T12:45:31;17.20;;;7.43;;
28958;SDS011;16066;0.000;0.000;2024-02-26T12:47:58;18.13;;;7.73;;
28958;SDS011;16066;0.000;0.000;2024-02-26T12:50:24;13.27;;;8.13;;
28958;SDS011;16066;0.000;0.000;2024-02-26T12:52:50;11.30;;;7.40;;
28958;SDS011;16066;0.000;0.000;2024-02-26T12:55:17;12.37;;;7.13;;
28958;SDS011;16066;0.000;0.000;2024-02-26T12:57:45;8.50;;;6.17;;
28958;SDS011;16066;0.000;0.000;2024-02-26T13:00:22;15.03;;;9.30;;
28958;SDS011;16066;0.000;0.000;2024-02-26T13:02:52;11.60;;;8.40;;
28958;SDS011;16066;0.000;0.000;2024-02-26T13:05:20;12.70;;;8.13;;
28958;SDS011;16066;0.000;0.000;2024-02-26T13:07:47;10.93;;;7.17;;
28958;SDS011;16066;0.000;0.000;2024-02-26T13:10:13;10.70;;;6.30;;
28958;SDS011;16066;0.000;0.000;2024-02-26T13:12:43;14.77;;;6.53;;
28958;SDS011;16066;0.000;0.000;2024-02-26T13:15:13;14.47;;;9.17;;
28958;SDS011;16066;0.000;0.000;2024-02-26T13:17:40;16.80;;;8.77;;
28958;SDS011;16066;0.000;0.000;2024-02-26T13:20:07;13.00;;;7.70;;
28958;SDS011;16066;0.000;0.000;2024-02-26T13:22:35;10.33;;;6.37;;
28958;SDS011;16066;0.000;0.000;2024-02-26T13:25:00;14.70;;;7.10;;
28958;SDS011;16066;0.000;0.000;2024-02-26T13:27:28;16.20;;;7.10;;
28958;SDS011;16066;0.000;0.000;2024-02-26T13:30:03;16.23;;;7.63;;
28958;SDS011;16066;0.000;0.000;2024-02-26T13:32:36;10.43;;;6.90;;
28958;SDS011;16066;0.000;0.000;2024-02-26T13:35:09;10.57;;;7.13;;
28958;SDS011;16066;0.000;0.000;2024-02-26T13:37:36;12.47;;;7.20;;
28958;SDS011;16066;0.000;0.000;2024-02-26T13:40:09;18.70;;;7.77;;
28958;SDS011;16066;0.000;0.000;2024-02-26T13:42:36;18.20;;;8.10;;
28958;SDS011;16066;0.000;0.000;2024-02-26T13:45:03;13.73;;;7.77;;
28958;SDS011;16066;0.000;0.000;2024-02-26T13:47:33;19.70;;;8.37;;
28958;SDS011;16066;0.000;0.000;2024-02-26T13:49:59;12.13;;;7.17;;
28958;SDS011;16066;0.000;0.000;2024-02-26T13:52:25;12.67;;;7.60;;
28958;SDS011;16066;0.000;0.000;2024-02-26T13:54:51;11.50;;;7.07;;
28958;SDS011;16066;0.000;0.000;2024-02-26T13:57:17;17.50;;;6.57;;
28958;SDS011;16066;0.000;0.000;2024-02-26T13:59:43;12.40;;;8.17;;
28958;SDS011;16066;0.000;0.000;2024-02-26T14:02:09;15.80;;;7.63;;
28958;SDS011;16066;0.000;0.000;2024-02-26T14:04:35;16.30;;;8.10;;
28958;SDS011;16066;0.000;0.000;2024-02-26T14:07:02;13.43;;;7.97;;
28958;SDS011;16066;0.000;0.000;2024-02-26T14:09:28;13.10;;;7.80;;
28958;SDS011;16066;0.000;0.000;2024-02-26T14:11:54;11.80;;;6.80;;
28958;SDS011;16066;0.000;0.000;2024-02-26T14:14:19;11.23;;;8.13;;
28958;SDS011;16066;0.000;0.000;2024-02-26T14:16:45;15.83;;;8.00;;
28958;SDS011;16066;0.000;0.000;2024-02-26T14:19:10;8.70;;;5.50;;
28958;SDS011;16066;0.000;0.000;2024-02-26T14:21:36;8.63;;;6.80;;
28958;SDS011;16066;0.000;0.000;2024-02-26T14:24:02;8.90;;;6.10;;
28958;SDS011;16066;0.000;0.000;2024-02-26T14:26:28;8.50;;;5.73;;
28958;SDS011;16066;0.000;0.000;2024-02-26T14:28:54;15.33;;;7.87;;
28958;SDS011;16066;0.000;0.000;2024-02-26T14:31:19;17.20;;;6.00;;
28958;SDS011;16066;0.000;0.000;2024-02-26T14:33:45;12.63;;;6.27;;
28958;SDS011;16066;0.000;0.000;2024-02-26T14:36:11;12.30;;;6.30;;
28958;SDS011;16066;0.000;0.000;2024-02-26T14:38:37;10.60;;;7.40;;
28958;SDS011;16066;0.000;0.000;2024-02-26T14:41:04;10.27;;;6.00;;
28958;SDS011;16066;0.000;0.000;2024-02-26T14:43:29;8.97;;;5.40;;
28958;SDS011;16066;0.000;0.000;2024-02-26T14:45:57;9.20;;;5.30;;
28958;SDS011;16066;0.000;0.000;2024-02-26T14:48:24;13.40;;;5.97;;
28958;SDS011;16066;0.000;0.000;2024-02-26T14:50:49;12.30;;;5.90;;
28958;SDS011;16066;0.000;0.000;2024-02-26T14:53:15;14.07;;;7.20;;
28958;SDS011;16066;0.000;0.000;2024-02-26T14:55:41;17.07;;;5.60;;
28958;SDS011;16066;0.000;0.000;2024-02-26T14:58:08;10.73;;;6.13;;
28958;SDS011;16066;0.000;0.000;2024-02-26T15:00:35;11.33;;;6.90;;
28958;SDS011;16066;0.000;0.000;2024-02-26T15:03:01;8.80;;;6.07;;
28958;SDS011;16066;0.000;0.000;2024-02-26T15:05:26;13.00;;;6.40;;
28958;SDS011;16066;0.000;0.000;2024-02-26T15:07:52;9.47;;;6.10;;
28958;SDS011;16066;0.000;0.000;2024-02-26T15:10:17;15.73;;;5.90;;
28958;SDS011;16066;0.000;0.000;2024-02-26T15:12:43;11.80;;;6.50;;
28958;SDS011;16066;0.000;0.000;2024-02-26T15:15:09;13.33;;;6.50;;
28958;SDS011;16066;0.000;0.000;2024-02-26T15:17:35;12.93;;;6.30;;
28958;SDS011;16066;0.000;0.000;2024-02-26T15:20:01;13.83;;;7.50;;
28958;SDS011;16066;0.000;0.000;2024-02-26T15:22:27;14.93;;;7.33;;
28958;SDS011;16066;0.000;0.000;2024-02-26T15:24:52;11.57;;;6.77;;
28958;SDS011;16066;0.000;0.000;2024-02-26T15:27:18;13.70;;;6.47;;
28958;SDS011;16066;0.000;0.000;2024-02-26T15:29:44;12.67;;;7.57;;
28958;SDS011;16066;0.000;0.000;2024-02-26T15:32:10;11.13;;;5.50;;
28958;SDS011;16066;0.000;0.000;2024-02-26T15:34:35;14.90;;;5.97;;
28958;SDS011;16066;0.000;0.000;2024-02-26T15:37:01;17.57;;;6.53;;
28958;SDS011;16066;0.000;0.000;2024-02-26T15:39:27;12.60;;;6.10;;
28958;SDS011;16066;0.000;0.000;2024-02-26T15:41:52;9.80;;;5.10;;
28958;SDS011;16066;0.000;0.000;2024-02-26T15:44:18;11.73;;;6.13;;
28958;SDS011;16066;0.000;0.000;2024-02-26T15:46:43;12.50;;;5.80;;
28958;SDS011;16066;0.000;0.000;2024-02-26T15:49:09;9.00;;;5.60;;
28958;SDS011;16066;0.000;0.000;2024-02-26T15:51:34;10.30;;;6.40;;
28958;SDS011;16066;0.000;0.000;2024-02-26T15:54:01;12.27;;;5.70;;
28958;SDS011;16066;0.000;0.000;2024-02-26T15:56:27;7.10;;;4.50;;
28958;SDS011;16066;0.000;0.000;2024-02-26T15:58:53;13.13;;;6.60;;
28958;SDS011;16066;0.000;0.000;2024-02-26T16:01:18;10.00;;;5.33;;
28958;SDS011;16066;0.000;0.000;2024-02-26T16:03:44;9.50;;;5.33;;
28958;SDS011;16066;0.000;0.000;2024-02-26T16:06:18;7.90;;;5.87;;
28958;SDS011;16066;0.000;0.000;2024-02-26T16:08:50;10.57;;;6.37;;
28958;SDS011;16066;0.000;0.000;2024-02-26T16:11:17;10.67;;;6.30;;
28958;SDS011;16066;0.000;0.000;2024-02-26T16:13:43;13.90;;;4.90;;
28958;SDS011;16066;0.000;0.000;2024-02-26T16:16:11;7.97;;;5.27;;
28958;SDS011;16066;0.000;0.000;2024-02-26T16:18:41;9.23;;;5.13;;
28958;SDS011;16066;0.000;0.000;2024-02-26T16:21:07;7.67;;;5.17;;
28958;SDS011;16066;0.000;0.000;2024-02-26T16:23:33;9.80;;;6.13;;
28958;SDS011;16066;0.000;0.000;2024-02-26T16:25:58;10.60;;;6.57;;
28958;SDS011;16066;0.000;0.000;2024-02-26T16:28:24;13.87;;;6.40;;
28958;SDS011;16066;0.000;0.000;2024-02-26T16:30:51;15.30;;;6.20;;
28958;SDS011;16066;0.000;0.000;2024-02-26T16:33:17;9.43;;;5.60;;
28958;SDS011;16066;0.000;0.000;2024-02-26T16:35:43;10.27;;;6.07;;
28958;SDS011;16066;0.000;0.000;2024-02-26T16:38:09;11.13;;;5.70;;
28958;SDS011;16066;0.000;0.000;2024-02-26T16:40:35;8.80;;;5.33;;
28958;SDS011;16066;0.000;0.000;2024-02-26T16:43:01;8.87;;;5.03;;
28958;SDS011;16066;0.000;0.000;2024-02-26T16:45:27;6.50;;;5.10;;
28958;SDS011;16066;0.000;0.000;2024-02-26T16:47:53;7.90;;;5.40;;
28958;SDS011;16066;0.000;0.000;2024-02-26T16:50:19;13.40;;;4.97;;
28958;SDS011;16066;0.000;0.000;2024-02-26T16:52:46;7.63;;;4.87;;
28958;SDS011;16066;0.000;0.000;2024-02-26T16:55:11;11.43;;;5.73;;
28958;SDS011;16066;0.000;0.000;2024-02-26T16:57:38;9.20;;;5.53;;
28958;SDS011;16066;0.000;0.000;2024-02-26T17:00:06;6.37;;;4.77;;
28958;SDS011;16066;0.000;0.000;2024-02-26T17:02:37;13.07;;;5.87;;
28958;SDS011;16066;0.000;0.000;2024-02-26T17:05:03;8.07;;;5.47;;
28958;SDS011;16066;0.000;0.000;2024-02-26T17:07:29;8.60;;;5.77;;
28958;SDS011;16066;0.000;0.000;2024-02-26T17:09:54;18.93;;;5.60;;
28958;SDS011;16066;0.000;0.000;2024-02-26T17:12:20;10.60;;;5.13;;
28958;SDS011;16066;0.000;0.000;2024-02-26T17:14:47;7.80;;;4.50;;
28958;SDS011;16066;0.000;0.000;2024-02-26T17:17:15;7.77;;;4.97;;
28958;SDS011;16066;0.000;0.000;2024-02-26T17:19:41;8.83;;;4.77;;
28958;SDS011;16066;0.000;0.000;2024-02-26T17:22:06;9.23;;;4.87;;
28958;SDS011;16066;0.000;0.000;2024-02-26T17:24:34;8.03;;;4.97;;
28958;SDS011;16066;0.000;0.000;2024-02-26T17:27:00;8.10;;;4.43;;
28958;SDS011;16066;0.000;0.000;2024-02-26T17:29:26;8.83;;;4.43;;
28958;SDS011;16066;0.000;0.000;2024-02-26T17:31:51;6.80;;;4.10;;
28958;SDS011;16066;0.000;0.000;2024-02-26T17:34:16;5.57;;;4.53;;
28958;SDS011;16066;0.000;0.000;2024-02-26T17:36:42;8.50;;;6.13;;
28958;SDS011;16066;0.000;0.000;2024-02-26T17:39:08;10.23;;;5.40;;
28958;SDS011;16066;0.000;0.000;2024-02-26T17:41:34;6.20;;;4.50;;
28958;SDS011;16066;0.000;0.000;2024-02-26T17:43:59;8.47;;;5.30;;
28958;SDS011;16066;0.000;0.000;2024-02-26T17:46:25;8.83;;;5.13;;
28958;SDS011;16066;0.000;0.000;2024-02-26T17:48:50;8.00;;;5.43;;
28958;SDS011;16066;0.000;0.000;2024-02-26T17:51:16;10.50;;;5.70;;
28958;SDS011;16066;0.000;0.000;2024-02-26T17:53:41;8.63;;;6.00;;
28958;SDS011;16066;0.000;0.000;2024-02-26T17:56:07;10.13;;;6.50;;
28958;SDS011;16066;0.000;0.000;2024-02-26T17:58:33;9.30;;;5.20;;
28958;SDS011;16066;0.000;0.000;2024-02-26T18:00:59;13.40;;;4.20;;
28958;SDS011;16066;0.000;0.000;2024-02-26T18:03:25;7.53;;;4.13;;
28958;SDS011;16066;0.000;0.000;2024-02-26T18:05:51;10.33;;;4.10;;
28958;SDS011;16066;0.000;0.000;2024-02-26T18:08:16;7.43;;;5.00;;
28958;SDS011;16066;0.000;0.000;2024-02-26T18:10:46;7.13;;;5.03;;
28958;SDS011;16066;0.000;0.000;2024-02-26T18:13:15;8.63;;;5.30;;
28958;SDS011;16066;0.000;0.000;2024-02-26T18:15:41;10.53;;;4.97;;
28958;SDS011;16066;0.000;0.000;2024-02-26T18:18:07;8.70;;;5.27;;
28958;SDS011;16066;0.000;0.000;2024-02-26T18:20:33;8.70;;;5.17;;
28958;SDS011;16066;0.000;0.000;2024-02-26T18:22:58;8.60;;;5.50;;
28958;SDS011;16066;0.000;0.000;2024-02-26T18:25:24;14.50;;;4.80;;
28958;SDS011;16066;0.000;0.000;2024-02-26T18:27:50;36.37;;;16.90;;
28958;SDS011;16066;0.000;0.000;2024-02-26T18:30:16;31.83;;;22.50;;
28958;SDS011;16066;0.000;0.000;2024-02-26T18:32:42;37.53;;;26.27;;
28958;SDS011;16066;0.000;0.000;2024-02-26T18:35:10;49.37;;;28.43;;
28958;SDS011;16066;0.000;0.000;2024-02-26T18:37:36;45.90;;;26.90;;
28958;SDS011;16066;0.000;0.000;2024-02-26T18:40:02;57.17;;;35.60;;
28958;SDS011;16066;0.000;0.000;2024-02-26T18:42:32;60.33;;;40.00;;
28958;SDS011;16066;0.000;0.000;2024-02-26T18:45:00;59.93;;;37.20;;
28958;SDS011;16066;0.000;0.000;2024-02-26T18:47:28;41.40;;;30.87;;
28958;SDS011;16066;0.000;0.000;2024-02-26T18:49:55;36.40;;;25.17;;
28958;SDS011;16066;0.000;0.000;2024-02-26T18:52:22;39.03;;;26.57;;
28958;SDS011;16066;0.000;0.000;2024-02-26T18:54:48;29.17;;;20.80;;
28958;SDS011;16066;0.000;0.000;2024-02-26T18:57:14;31.30;;;21.97;;
28958;SDS011;16066;0.000;0.000;2024-02-26T18:59:40;25.73;;;19.70;;
28958;SDS011;16066;0.000;0.000;2024-02-26T19:02:08;25.17;;;18.80;;
28958;SDS011;16066;0.000;0.000;2024-02-26T19:04:34;25.37;;;18.27;;
28958;SDS011;16066;0.000;0.000;2024-02-26T19:07:00;22.63;;;17.50;;
28958;SDS011;16066;0.000;0.000;2024-02-26T19:09:26;25.70;;;17.73;;
28958;SDS011;16066;0.000;0.000;2024-02-26T19:11:52;18.10;;;13.47;;
28958;SDS011;16066;0.000;0.000;2024-02-26T19:14:20;20.40;;;15.67;;
28958;SDS011;16066;0.000;0.000;2024-02-26T19:16:46;22.43;;;14.93;;
28958;SDS011;16066;0.000;0.000;2024-02-26T19:19:11;22.53;;;15.00;;
28958;SDS011;16066;0.000;0.000;2024-02-26T19:21:37;20.80;;;14.20;;
28958;SDS011;16066;0.000;0.000;2024-02-26T19:24:03;21.60;;;14.27;;
28958;SDS011;16066;0.000;0.000;2024-02-26T19:26:30;21.70;;;14.83;;
28958;SDS011;16066;0.000;0.000;2024-02-26T19:28:56;17.10;;;13.23;;
28958;SDS011;16066;0.000;0.000;2024-02-26T19:31:22;17.53;;;13.00;;
28958;SDS011;16066;0.000;0.000;2024-02-26T19:33:47;17.60;;;13.20;;
28958;SDS011;16066;0.000;0.000;2024-02-26T19:36:15;16.50;;;12.93;;
28958;SDS011;16066;0.000;0.000;2024-02-26T19:38:40;17.40;;;12.70;;
28958;SDS011;16066;0.000;0.000;2024-02-26T19:41:07;16.40;;;12.37;;
28958;SDS011;16066;0.000;0.000;2024-02-26T19:43:32;16.93;;;11.93;;
28958;SDS011;16066;0.000;0.000;2024-02-26T19:45:58;14.07;;;11.07;;
28958;SDS011;16066;0.000;0.000;2024-02-26T19:48:23;17.17;;;11.90;;
28958;SDS011;16066;0.000;0.000;2024-02-26T19:50:49;14.50;;;11.03;;
28958;SDS011;16066;0.000;0.000;2024-02-26T19:53:14;14.20;;;10.20;;
28958;SDS011;16066;0.000;0.000;2024-02-26T19:55:40;14.30;;;10.40;;
28958;SDS011;16066;0.000;0.000;2024-02-26T19:58:05;12.60;;;9.70;;
28958;SDS011;16066;0.000;0.000;2024-02-26T20:00:31;12.60;;;9.70;;
28958;SDS011;16066;0.000;0.000;2024-02-26T20:02:57;13.60;;;10.10;;
28958;SDS011;16066;0.000;0.000;2024-02-26T20:05:22;13.30;;;9.90;;
28958;SDS011;16066;0.000;0.000;2024-02-26T20:07:48;13.40;;;10.40;;
28958;SDS011;16066;0.000;0.000;2024-02-26T20:10:14;13.60;;;9.67;;
28958;SDS011;16066;0.000;0.000;2024-02-26T20:12:40;12.00;;;8.50;;
28958;SDS011;16066;0.000;0.000;2024-02-26T20:15:05;13.03;;;9.30;;
28958;SDS011;16066;0.000;0.000;2024-02-26T20:17:31;10.53;;;8.97;;
28958;SDS011;16066;0.000;0.000;2024-02-26T20:19:57;13.13;;;9.13;;
28958;SDS011;16066;0.000;0.000;2024-02-26T20:22:22;11.20;;;8.63;;
28958;SDS011;16066;0.000;0.000;2024-02-26T20:24:49;14.90;;;7.90;;
28958;SDS011;16066;0.000;0.000;2024-02-26T20:27:14;11.80;;;9.47;;
28958;SDS011;16066;0.000;0.000;2024-02-26T20:29:40;12.00;;;7.67;;
28958;SDS011;16066;0.000;0.000;2024-02-26T20:32:06;11.43;;;8.40;;
28958;SDS011;16066;0.000;0.000;2024-02-26T20:34:32;11.17;;;8.70;;
28958;SDS011;16066;0.000;0.000;2024-02-26T20:36:58;10.00;;;7.90;;
28958;SDS011;16066;0.000;0.000;2024-02-26T20:39:23;9.77;;;7.00;;
28958;SDS011;16066;0.000;0.000;2024-02-26T20:41:49;11.27;;;8.80;;
28958;SDS011;16066;0.000;0.000;2024-02-26T20:44:15;10.20;;;8.40;;
28958;SDS011;16066;0.000;0.000;2024-02-26T20:46:40;11.70;;;8.60;;